• Join FlightAware (Why Join?)
  • Login
  • US Flag 
10:59AM EST


 

Airport Tracker/Info


-or-


 

Live Flight TrackerFlight Track Log ✈ LXJ342 ✈ 28-Jun-2013 ✈ KDAL - KBBG

Flight Track Log - Related Links

Times and Time Zones

All times are in EDT time to prevent confusion due to time zone crossing. See the LXJ342 flight status page for this flight to view local times or setup timezone preferences in your user account.

Time Position Orientation Groundspeed Altitude Reporting Facility
EDT Latitude Longitude Course Direction KTS MPH feet Rate Location/Type
02:21PM 32.8667 -96.8667 29° Northeast 175 201 1,500  Level Dallas / Fort Worth TRACON
02:23PM 32.9333 -96.9500 314° West 265 305 5,000 2,220 Climbing Dallas / Fort Worth TRACON
02:24PM 32.9833 -97.0167 312° West 267 307 7,500 2,700 Climbing Dallas / Fort Worth TRACON
02:26PM 33.1000 -97.0217 358° North 259 298 13,000 2,820 Climbing Fort Worth Center
02:27PM 33.2263 -96.9547 29° Northeast  Level FlightAware Approximate
02:27PM 33.1853 -96.9742 25° Northeast 288 331 15,600  Level Fort Worth Center
02:28PM 33.2625 -96.9289 26° Northeast 317 365 17,800 2,400 Climbing Fort Worth Center
02:29PM 33.3603 -96.8761 24° Northeast 341 392 20,500 2,400 Climbing Fort Worth Center
02:30PM 33.4478 -96.8283 24° Northeast 341 392 22,700 2,040 Climbing Fort Worth Center
02:31PM 33.5247 -96.7781 29° Northeast 341 392 24,700 1,740 Climbing Fort Worth Center
02:32PM 33.6100 -96.7225 28° Northeast 341 392 26,200 1,320 Climbing Fort Worth Center
02:33PM 33.7017 -96.6619 29° Northeast 351 404 27,400 1,140 Climbing Fort Worth Center
02:34PM 33.7867 -96.5836 37° Northeast 364 419 28,600 1,200 Climbing Fort Worth Center
02:35PM 33.8653 -96.4881 45° Northeast 377 434 29,800 720 Climbing Fort Worth Center
02:36PM 33.9481 -96.3869 45° Northeast 401 461 30,100 60 Climbing Fort Worth Center
02:37PM 34.0369 -96.2881 43° Northeast 416 479 30,000 360 Descending Fort Worth Center
02:38PM 34.1153 -96.1892 46° Northeast 421 484 30,900 1,020 Climbing Fort Worth Center
02:39PM 34.2019 -96.0875 44° Northeast 416 479 32,100 1,020 Climbing Fort Worth Center
02:40PM 34.2864 -95.9883 44° Northeast 416 479 33,000 420 Climbing Fort Worth Center
02:41PM 34.3747 -95.8811 45° Northeast 422 486 33,000  Level Fort Worth Center
02:42PM 34.4631 -95.7739 45° Northeast 427 491 33,000  Level Fort Worth Center
02:43PM 34.5536 -95.6661 44° Northeast 437 503 33,000  Level Fort Worth Center
02:44PM 34.6989 -95.4953 44° Northeast 454 522 33,000  Level Kansas City Center
02:45PM 34.7900 -95.3831 45° Northeast 454 522 33,000  Level Kansas City Center
02:46PM 34.8439 -95.3214 43° Northeast 455 524 33,000  Level Memphis Center
02:47PM 34.9339 -95.2103 45° Northeast 455 524 33,000  Level Memphis Center
02:48PM 35.0236 -95.0989 45° Northeast 455 524 33,000  Level Memphis Center
02:49PM 35.1153 -94.9947 43° Northeast 455 524 33,000 -240 Level Memphis Center
02:50PM 35.2028 -94.8778 48° Northeast 450 518 32,600 -840 Descending Memphis Center
02:51PM 35.2783 -94.7547 53° Northeast 460 529 31,400 -1,200 Descending Memphis Center
02:52PM 35.3514 -94.6311 54° Northeast 455 524 30,200 -1,200 Descending Memphis Center
02:53PM 35.4222 -94.5100 54° Northeast 444 511 29,000 1,380 Descending Memphis Center
02:54PM 35.4908 -94.3936 54° Northeast 439 505 33,000 -1,860 Climbing Memphis Center
02:55PM 35.5547 -94.2869 54° Northeast 431 496 25,300 -5,100 Descending Memphis Center
02:56PM 35.6208 -94.1700 55° Northeast 421 484 22,800 -2,700 Descending Memphis Center
02:57PM 35.6931 -94.0583 51° Northeast 396 456 19,900 -2,520 Descending Memphis Center
02:58PM 35.7458 -93.9608 56° Northeast 382 440 17,800 -2,280 Descending Memphis Center
02:59PM 35.8028 -93.8636 54° Northeast 362 417 15,400 -2,220 Descending Memphis Center
03:00PM 35.8578 -93.7661 55° Northeast 355 409 13,400 -2,040 Descending Memphis Center
03:01PM 35.9122 -93.6736 54° Northeast 344 396 11,400 -1,860 Descending Memphis Center
03:02PM 35.9603 -93.5908 54° Northeast 318 366 9,700 -1,860 Descending Memphis Center
03:03PM 36.0039 -93.5156 54° Northeast 292 336 7,700 -1,860 Descending Memphis Center
03:04PM 36.0497 -93.4403 53° Northeast 278 320 6,000 -900 Descending Memphis Center
03:05PM 36.0911 -93.3647 56° Northeast 271 312 6,000  Level Memphis Center
03:06PM 36.1347 -93.2867 55° Northeast 266 306 6,000  Level Memphis Center
03:07PM 36.1781 -93.2111 55° Northeast 266 306 6,000  Level Memphis Center
03:08PM 36.2236 -93.1328 54° Northeast 266 306 6,000  Level Memphis Center
03:09PM 36.2669 -93.0572 55° Northeast 266 306 6,000  Level Memphis Center
03:10PM 36.3197 -93.0281 24° Northeast 227 261 6,000 -60 Level Memphis Center
03:11PM 36.3672 -93.0578 333° Northwest 175 201 5,900 -600 Descending Memphis Center
03:12PM 36.4189 -93.0750 345° North 175 201 4,800  Descending Memphis Center
03:13PM 36.4667 -93.0819 353° North 175 201 6,000 1,200 Climbing Memphis Center
03:15PM 36.5167 -93.2000 321° Northwest  Level FlightAware Approximate
03:22PM 36.5321 -93.2005 321° Northwest  Level Estimated
03:23PM 36.5321 -93.2005 321° Northwest  Level Estimated
03:24PM 36.5321 -93.2005 321° Northwest  Level Estimated